Time;durP1;ratioP1;P1;durP2;ratioP2;P2;SDS_P1;SDS_P2;PMS_P1;PMS_P2;Temp;Humidity;BMP_temperature;BMP_pressure;BME280_temperature;BME280_humidity;BME280_pressure;Samples;Min_cycle;Max_cycle;Signal;HPM_P1;HPM_P2
2023/06/11 00:01:14;;;;;;;5.80;5.40;;;27.80;47.90;;;;;;5014586;28;20504;-71
2023/06/11 00:03:42;;;;;;;6.00;5.60;;;27.80;48.00;;;;;;5018285;28;20892;-70
2023/06/11 00:06:12;;;;;;;5.47;5.07;;;27.80;47.90;;;;;;5028159;28;20468;-71
2023/06/11 00:08:40;;;;;;;6.70;6.20;;;27.70;47.90;;;;;;5038828;28;20531;-71
2023/06/11 00:11:10;;;;;;;5.23;4.93;;;27.70;47.80;;;;;;5033715;28;20965;-71
2023/06/11 00:13:38;;;;;;;5.73;5.43;;;27.80;48.10;;;;;;5021372;28;20448;-71
2023/06/11 00:16:07;;;;;;;5.33;4.83;;;27.70;48.00;;;;;;5023284;28;21001;-71
2023/06/11 00:18:36;;;;;;;6.30;5.83;;;27.70;47.90;;;;;;5024607;28;21037;-71
2023/06/11 00:21:04;;;;;;;5.53;5.13;;;27.70;48.00;;;;;;5036907;28;20478;-72
2023/06/11 00:23:34;;;;;;;6.67;5.93;;;27.70;48.10;;;;;;5039124;28;20448;-73
2023/06/11 00:26:03;;;;;;;5.67;5.27;;;27.70;48.00;;;;;;5028874;28;20554;-71
2023/06/11 00:28:32;;;;;;;5.70;5.30;;;27.70;48.00;;;;;;5032640;28;20459;-71
2023/06/11 00:31:03;;;;;;;5.80;5.40;;;27.70;48.00;;;;;;5025112;28;20470;-71
2023/06/11 00:33:34;;;;;;;5.67;5.27;;;27.70;48.00;;;;;;5036845;28;20441;-72
2023/06/11 00:36:03;;;;;;;5.40;5.00;;;27.70;48.10;;;;;;5025517;28;20487;-71
2023/06/11 00:38:33;;;;;;;5.17;4.87;;;27.70;48.10;;;;;;5014125;28;20792;-71
2023/06/11 00:41:01;;;;;;;6.37;5.67;;;27.70;48.10;;;;;;5024476;28;20483;-71
2023/06/11 00:43:30;;;;;;;5.50;5.10;;;27.70;48.20;;;;;;5038172;28;20433;-72
2023/06/11 00:46:02;;;;;;;5.53;5.13;;;27.70;48.20;;;;;;5025865;28;20468;-71
2023/06/11 00:48:30;;;;;;;6.13;5.73;;;27.70;48.10;;;;;;5041658;28;21210;-72
2023/06/11 00:50:59;;;;;;;5.50;5.10;;;27.70;48.10;;;;;;5019348;28;20531;-71
2023/06/11 00:53:27;;;;;;;6.10;5.67;;;27.70;48.10;;;;;;5030003;28;20461;-71
2023/06/11 00:55:56;;;;;;;6.27;5.77;;;27.70;48.10;;;;;;5041759;28;20475;-71
2023/06/11 00:58:25;;;;;;;6.07;5.67;;;27.70;48.20;;;;;;5039612;28;21041;-71
2023/06/11 01:00:57;;;;;;;5.27;4.87;;;27.70;48.20;;;;;;5028452;28;20468;-70
2023/06/11 01:03:28;;;;;;;6.17;5.50;;;27.70;48.30;;;;;;5023897;28;20442;-72
2023/06/11 01:06:04;;;;;;;6.17;5.77;;;27.70;48.20;;;;;;5022649;28;20496;-71
2023/06/11 01:08:38;;;;;;;6.50;5.50;;;27.70;48.20;;;;;;5040418;28;20432;-71
2023/06/11 01:11:13;;;;;;;5.27;4.97;;;27.70;48.30;;;;;;5042233;28;21019;-71
2023/06/11 01:13:45;;;;;;;5.40;5.10;;;27.70;48.30;;;;;;5036190;28;20480;-71
2023/06/11 01:16:21;;;;;;;5.90;5.50;;;27.70;48.30;;;;;;5011318;28;21039;-71
2023/06/11 01:19:03;;;;;;;5.73;5.33;;;27.70;48.30;;;;;;5028982;28;20451;-71
2023/06/11 01:21:45;;;;;;;5.73;5.23;;;27.70;48.50;;;;;;5022285;28;20467;-71
2023/06/11 01:24:21;;;;;;;5.83;5.40;;;27.70;48.30;;;;;;5029515;28;20455;-71
2023/06/11 01:27:04;;;;;;;6.07;5.50;;;27.60;48.30;;;;;;5030701;28;20571;-71
2023/06/11 01:29:37;;;;;;;6.17;5.77;;;27.60;48.30;;;;;;5035427;28;21002;-71
2023/06/11 01:32:07;;;;;;;6.30;5.87;;;27.60;48.30;;;;;;5023631;28;20867;-71
2023/06/11 01:34:41;;;;;;;5.00;4.53;;;27.60;48.30;;;;;;5025041;28;20471;-71
2023/06/11 01:37:14;;;;;;;6.00;5.60;;;27.60;48.30;;;;;;5035209;28;20575;-71
2023/06/11 01:39:47;;;;;;;5.73;5.33;;;27.60;48.30;;;;;;5034015;28;20603;-71
2023/06/11 01:42:26;;;;;;;5.57;5.17;;;27.60;48.40;;;;;;5036463;28;20465;-72
2023/06/11 01:44:56;;;;;;;5.20;4.90;;;27.60;48.50;;;;;;5008889;28;20507;-70
2023/06/11 01:47:24;;;;;;;6.10;5.70;;;27.60;48.50;;;;;;5027019;28;20988;-71
2023/06/11 01:49:53;;;;;;;5.90;5.50;;;27.60;48.50;;;;;;5033503;28;20798;-71
2023/06/11 01:52:22;;;;;;;5.60;5.20;;;27.60;49.10;;;;;;5033950;28;20468;-71
2023/06/11 01:54:51;;;;;;;6.20;5.70;;;27.60;48.60;;;;;;5022179;28;20583;-71
2023/06/11 01:57:19;;;;;;;5.20;4.80;;;27.60;48.50;;;;;;5027217;28;20476;-71
2023/06/11 01:59:48;;;;;;;5.17;4.80;;;27.60;48.50;;;;;;5035642;28;20827;-71
2023/06/11 02:02:18;;;;;;;5.80;5.40;;;27.60;48.40;;;;;;5032519;28;20507;-71
2023/06/11 02:04:47;;;;;;;5.83;5.43;;;27.60;48.50;;;;;;5028677;28;20436;-71
2023/06/11 02:07:15;;;;;;;5.90;5.50;;;27.60;48.60;;;;;;5026072;28;20469;-71
2023/06/11 02:09:44;;;;;;;5.87;5.47;;;27.60;48.60;;;;;;5026041;28;21037;-71
2023/06/11 02:12:12;;;;;;;6.30;5.90;;;27.60;48.70;;;;;;5033661;28;20476;-71
2023/06/11 02:14:40;;;;;;;6.83;6.27;;;27.60;48.60;;;;;;5040331;28;21023;-70
2023/06/11 02:17:09;;;;;;;6.50;5.97;;;27.60;48.60;;;;;;5015369;28;20489;-71
2023/06/11 02:19:39;;;;;;;5.50;5.10;;;27.60;48.70;;;;;;5026328;28;20471;-71
2023/06/11 02:22:08;;;;;;;5.60;5.20;;;27.50;48.70;;;;;;5043039;28;20522;-70
2023/06/11 02:24:36;;;;;;;5.83;5.33;;;27.50;48.60;;;;;;5028032;28;20448;-71
2023/06/11 02:27:06;;;;;;;5.87;5.17;;;27.50;48.70;;;;;;5027522;28;20515;-71
2023/06/11 02:29:35;;;;;;;5.90;5.50;;;27.50;48.80;;;;;;5020623;28;20438;-72
2023/06/11 02:32:05;;;;;;;5.30;4.90;;;27.50;48.70;;;;;;5014115;28;20472;-71
2023/06/11 02:34:34;;;;;;;5.73;5.33;;;27.50;48.60;;;;;;5022709;28;20468;-71
2023/06/11 02:37:04;;;;;;;5.40;5.00;;;27.50;48.70;;;;;;5026102;28;20484;-70
2023/06/11 02:39:32;;;;;;;5.40;5.10;;;27.50;48.70;;;;;;5041195;28;20489;-71
2023/06/11 02:42:01;;;;;;;5.80;5.30;;;27.50;48.80;;;;;;5025750;28;20486;-72
2023/06/11 02:44:29;;;;;;;5.70;5.20;;;27.50;48.90;;;;;;5031835;28;20514;-71
2023/06/11 02:46:58;;;;;;;5.80;5.30;;;27.50;48.80;;;;;;5035393;28;20489;-70
2023/06/11 02:49:26;;;;;;;5.57;5.07;;;27.50;48.90;;;;;;5034750;28;20807;-69
2023/06/11 02:51:54;;;;;;;5.13;4.80;;;27.50;49.00;;;;;;5033819;28;21022;-71
2023/06/11 02:54:24;;;;;;;5.83;5.43;;;27.50;48.90;;;;;;5024536;28;20449;-71
2023/06/11 02:56:53;;;;;;;5.30;4.93;;;27.50;48.90;;;;;;5031769;28;20476;-71
2023/06/11 02:59:21;;;;;;;6.73;5.30;;;27.40;48.90;;;;;;5040348;28;20480;-72
2023/06/11 03:01:50;;;;;;;5.50;5.10;;;27.40;48.90;;;;;;5029130;28;20894;-72
2023/06/11 03:04:18;;;;;;;6.13;5.67;;;27.40;48.90;;;;;;5016319;28;20459;-71
2023/06/11 03:06:47;;;;;;;5.50;5.00;;;27.50;49.00;;;;;;5026103;28;20460;-70
2023/06/11 03:09:15;;;;;;;6.00;5.60;;;27.40;49.00;;;;;;5036593;28;20440;-72
2023/06/11 03:11:45;;;;;;;5.73;5.33;;;27.40;49.00;;;;;;5029412;28;20468;-71
2023/06/11 03:14:14;;;;;;;5.37;4.97;;;27.40;49.10;;;;;;5025690;28;20475;-71
2023/06/11 03:16:42;;;;;;;5.30;5.00;;;27.40;49.10;;;;;;5021107;28;20478;-70
2023/06/11 03:19:12;;;;;;;5.77;5.37;;;27.40;49.10;;;;;;5026554;28;20460;-71
2023/06/11 03:21:41;;;;;;;5.70;5.20;;;27.40;49.20;;;;;;5027466;28;20476;-72
2023/06/11 03:24:09;;;;;;;6.07;5.63;;;27.40;49.10;;;;;;5034613;28;20890;-70
2023/06/11 03:26:38;;;;;;;5.97;5.57;;;27.40;49.00;;;;;;5009644;28;20465;-70
2023/06/11 03:29:08;;;;;;;6.90;6.40;;;27.40;49.50;;;;;;5029645;28;21000;-72
2023/06/11 03:31:45;;;;;;;6.10;5.70;;;27.40;49.10;;;;;;5025141;28;20472;-71
2023/06/11 03:34:13;;;;;;;6.33;5.73;;;27.40;49.20;;;;;;5009995;28;20536;-71
2023/06/11 03:36:42;;;;;;;5.50;5.17;;;27.30;49.10;;;;;;5033273;28;20480;-71
2023/06/11 03:39:16;;;;;;;5.60;5.27;;;27.30;49.10;;;;;;5024579;28;20464;-69
2023/06/11 03:41:48;;;;;;;6.17;5.67;;;27.30;49.10;;;;;;5026046;28;20481;-70
2023/06/11 03:44:18;;;;;;;5.27;4.90;;;27.30;49.10;;;;;;5042253;28;20436;-70
2023/06/11 03:46:47;;;;;;;5.50;5.13;;;27.40;49.30;;;;;;5020134;28;20480;-70
2023/06/11 03:49:16;;;;;;;5.63;5.23;;;27.30;49.10;;;;;;5019354;28;20431;-71
2023/06/11 03:51:44;;;;;;;5.70;5.30;;;27.30;49.30;;;;;;5035370;28;20509;-71
2023/06/11 03:54:14;;;;;;;6.47;6.00;;;27.30;49.30;;;;;;5022480;28;20529;-71
2023/06/11 03:56:43;;;;;;;6.20;5.80;;;27.30;49.20;;;;;;5021337;28;20475;-70
2023/06/11 03:59:11;;;;;;;6.70;6.30;;;27.30;49.30;;;;;;5034400;28;20880;-71
2023/06/11 04:01:41;;;;;;;5.93;5.53;;;27.30;49.30;;;;;;5026609;28;20934;-71
2023/06/11 04:04:10;;;;;;;6.60;6.10;;;27.30;49.50;;;;;;5021206;28;20833;-71
2023/06/11 04:06:38;;;;;;;6.83;5.97;;;27.30;49.50;;;;;;5028228;28;20456;-71
2023/06/11 04:09:08;;;;;;;6.50;6.00;;;27.30;49.40;;;;;;5027938;28;20794;-71
2023/06/11 04:11:36;;;;;;;6.03;5.53;;;27.30;49.50;;;;;;5017803;28;20467;-70
2023/06/11 04:14:04;;;;;;;5.93;5.33;;;27.30;49.50;;;;;;5039606;28;20810;-70
2023/06/11 04:16:33;;;;;;;6.40;5.90;;;27.20;49.40;;;;;;5009020;28;20494;-70
2023/06/11 04:19:03;;;;;;;6.17;5.77;;;27.20;49.50;;;;;;5023380;28;20456;-71
2023/06/11 04:21:31;;;;;;;6.37;5.97;;;27.20;49.60;;;;;;5028007;28;20483;-71
2023/06/11 04:24:00;;;;;;;6.60;6.10;;;27.20;49.60;;;;;;5028524;28;20447;-71
2023/06/11 04:26:31;;;;;;;6.53;6.13;;;27.20;49.40;;;;;;5032657;28;20512;-71
2023/06/11 04:29:01;;;;;;;6.70;6.20;;;27.20;49.50;;;;;;5040561;28;20943;-72
2023/06/11 04:31:30;;;;;;;5.97;5.47;;;27.20;49.40;;;;;;5036493;28;20483;-71
2023/06/11 04:34:03;;;;;;;7.10;6.40;;;27.20;49.20;;;;;;5023176;28;20624;-69
2023/06/11 04:36:38;;;;;;;6.10;5.60;;;27.20;49.30;;;;;;5012228;28;21011;-71
2023/06/11 04:39:11;;;;;;;6.10;5.70;;;27.20;49.50;;;;;;5023744;28;20544;-71
2023/06/11 04:41:41;;;;;;;5.53;5.13;;;27.20;49.60;;;;;;5025230;28;21020;-71
2023/06/11 04:44:10;;;;;;;6.20;5.80;;;27.20;49.60;;;;;;5030203;28;20454;-71
2023/06/11 04:46:40;;;;;;;6.40;6.00;;;27.10;49.40;;;;;;5038312;28;20486;-72
2023/06/11 04:49:09;;;;;;;7.00;6.30;;;27.10;49.10;;;;;;5017684;28;20433;-71
2023/06/11 04:51:40;;;;;;;6.97;6.47;;;27.10;49.40;;;;;;5024091;28;20487;-71
2023/06/11 04:54:11;;;;;;;6.57;6.07;;;27.10;49.30;;;;;;5015786;28;20439;-71
2023/06/11 04:56:45;;;;;;;6.70;6.10;;;27.10;49.30;;;;;;5031143;28;20578;-71
2023/06/11 04:59:15;;;;;;;5.70;5.30;;;27.10;49.40;;;;;;5034349;28;20510;-71
2023/06/11 05:01:48;;;;;;;6.47;5.97;;;27.10;49.40;;;;;;5022910;28;20513;-71
2023/06/11 05:04:19;;;;;;;6.97;6.37;;;27.10;49.20;;;;;;5030863;28;20443;-71
2023/06/11 05:06:49;;;;;;;7.40;6.87;;;27.00;49.10;;;;;;5027085;28;21111;-71
2023/06/11 05:09:21;;;;;;;7.50;6.90;;;27.10;49.30;;;;;;5027457;28;20463;-71
2023/06/11 05:11:51;;;;;;;6.77;6.27;;;27.00;49.20;;;;;;5034039;28;20898;-72
2023/06/11 05:14:21;;;;;;;7.10;6.50;;;27.00;49.60;;;;;;5020301;28;20493;-71
2023/06/11 05:16:52;;;;;;;6.40;5.77;;;27.10;49.40;;;;;;5039681;28;20484;-72
2023/06/11 05:19:21;;;;;;;6.73;6.33;;;27.10;49.40;;;;;;5019066;28;20459;-71
2023/06/11 05:21:51;;;;;;;7.40;6.80;;;27.00;49.50;;;;;;5030624;28;20558;-71
2023/06/11 05:24:20;;;;;;;6.30;5.87;;;27.00;49.20;;;;;;5032113;28;20439;-69
2023/06/11 05:26:55;;;;;;;6.93;6.43;;;27.00;49.20;;;;;;5024102;28;20546;-71
2023/06/11 05:29:26;;;;;;;6.03;5.63;;;27.00;49.30;;;;;;5019213;28;20444;-70
2023/06/11 05:31:58;;;;;;;6.90;6.30;;;27.00;49.60;;;;;;5019919;28;20858;-70
2023/06/11 05:34:30;;;;;;;7.87;7.30;;;27.10;49.40;;;;;;5013885;28;20805;-72
2023/06/11 05:37:02;;;;;;;7.20;6.60;;;27.10;49.50;;;;;;5019094;28;20464;-71
2023/06/11 05:39:31;;;;;;;7.50;7.00;;;27.00;50.80;;;;;;5032067;28;20458;-71
2023/06/11 05:42:01;;;;;;;7.23;6.63;;;27.00;49.20;;;;;;5037715;28;20472;-71
2023/06/11 05:44:30;;;;;;;8.10;7.50;;;27.00;49.40;;;;;;5029921;28;20471;-69
2023/06/11 05:46:58;;;;;;;7.70;7.10;;;27.00;49.40;;;;;;5025946;28;20485;-71
2023/06/11 05:49:27;;;;;;;6.77;6.27;;;27.00;49.20;;;;;;5022600;28;20798;-71
2023/06/11 05:51:56;;;;;;;7.40;6.90;;;27.00;49.50;;;;;;5022044;28;20471;-71
2023/06/11 05:54:26;;;;;;;8.50;7.90;;;27.00;49.10;;;;;;5035596;28;20456;-71
2023/06/11 05:56:55;;;;;;;7.60;7.10;;;27.00;49.20;;;;;;5025762;28;20480;-71
2023/06/11 05:59:23;;;;;;;7.40;6.80;;;27.00;49.10;;;;;;5021021;28;20450;-69
2023/06/11 06:01:52;;;;;;;6.87;6.40;;;27.10;49.40;;;;;;5034857;28;20476;-71
2023/06/11 06:04:23;;;;;;;7.77;7.17;;;27.00;49.30;;;;;;5023535;28;20894;-71
2023/06/11 06:06:51;;;;;;;7.03;6.53;;;27.00;49.70;;;;;;5028240;28;20900;-71
2023/06/11 06:09:19;;;;;;;7.07;6.50;;;27.10;49.70;;;;;;5025358;28;20458;-71
2023/06/11 06:11:50;;;;;;;7.30;6.80;;;27.10;49.60;;;;;;5034146;28;21016;-70
2023/06/11 06:14:18;;;;;;;7.13;6.63;;;27.00;49.70;;;;;;5024210;28;20974;-70
2023/06/11 06:16:52;;;;;;;7.37;6.77;;;27.00;49.70;;;;;;5029673;28;20484;-71
2023/06/11 06:19:27;;;;;;;7.47;6.87;;;27.00;50.00;;;;;;5025183;28;20445;-71
2023/06/11 06:21:55;;;;;;;8.30;7.70;;;27.00;49.90;;;;;;5026918;28;21027;-72
2023/06/11 06:24:24;;;;;;;8.27;7.67;;;27.00;50.10;;;;;;5031211;28;22055;-70
2023/06/11 06:26:58;;;;;;;8.67;8.07;;;27.00;50.00;;;;;;5017153;28;20471;-70
2023/06/11 06:29:32;;;;;;;7.40;6.90;;;27.00;49.90;;;;;;5038631;28;20443;-71
2023/06/11 06:32:01;;;;;;;7.50;6.90;;;27.00;50.20;;;;;;5034682;28;20480;-72
2023/06/11 06:34:30;;;;;;;7.10;6.60;;;27.00;50.10;;;;;;5034176;28;20440;-71
2023/06/11 06:37:01;;;;;;;6.97;6.47;;;27.00;50.30;;;;;;5025968;28;20487;-71
2023/06/11 06:39:30;;;;;;;7.20;6.70;;;27.00;50.30;;;;;;5036561;28;20499;-72
2023/06/11 06:42:00;;;;;;;7.90;7.33;;;27.00;50.40;;;;;;5022756;28;21078;-72
2023/06/11 06:44:40;;;;;;;6.60;6.10;;;27.00;50.40;;;;;;5028450;28;20451;-72
2023/06/11 06:47:09;;;;;;;7.67;7.17;;;27.00;50.40;;;;;;5020612;28;20508;-71
2023/06/11 06:49:38;;;;;;;6.47;6.07;;;27.00;50.30;;;;;;5034555;28;20792;-71
2023/06/11 06:52:09;;;;;;;8.20;7.60;;;27.00;50.40;;;;;;5016449;28;21031;-71
2023/06/11 06:54:38;;;;;;;7.40;6.80;;;27.00;50.40;;;;;;5029594;28;20629;-71
2023/06/11 06:57:09;;;;;;;6.80;6.30;;;27.00;50.50;;;;;;5037772;28;20491;-71
2023/06/11 06:59:39;;;;;;;7.13;6.63;;;27.00;50.40;;;;;;5026314;28;20482;-70
2023/06/11 07:02:07;;;;;;;7.37;6.77;;;27.00;50.40;;;;;;5023716;28;20472;-71
2023/06/11 07:04:38;;;;;;;7.43;6.93;;;27.00;50.40;;;;;;5017748;28;20481;-71
2023/06/11 07:07:06;;;;;;;7.53;6.83;;;27.00;50.40;;;;;;5014846;28;20471;-71
2023/06/11 07:09:36;;;;;;;8.33;7.60;;;27.00;50.30;;;;;;5015576;28;20828;-72
2023/06/11 07:12:07;;;;;;;6.87;6.40;;;27.00;50.50;;;;;;5018802;28;20472;-71
2023/06/11 07:14:36;;;;;;;7.30;6.80;;;27.00;50.60;;;;;;5037293;28;20463;-71
2023/06/11 07:17:05;;;;;;;7.17;6.67;;;27.00;50.70;;;;;;5029666;28;20550;-72
2023/06/11 07:19:34;;;;;;;6.53;6.10;;;27.00;50.70;;;;;;5040353;28;20458;-70
2023/06/11 07:22:02;;;;;;;7.10;6.50;;;27.00;50.80;;;;;;5021804;28;20480;-71
2023/06/11 07:24:35;;;;;;;7.30;6.70;;;27.00;50.80;;;;;;5018991;28;20490;-71
2023/06/11 07:27:07;;;;;;;6.77;6.27;;;27.00;51.00;;;;;;5036926;28;21044;-71
2023/06/11 07:29:36;;;;;;;6.63;6.20;;;27.00;50.90;;;;;;5030884;28;20499;-71
2023/06/11 07:32:05;;;;;;;7.37;6.77;;;27.00;51.00;;;;;;5026478;28;21021;-71
2023/06/11 07:34:33;;;;;;;6.10;5.70;;;27.00;50.90;;;;;;5015016;28;20476;-71
2023/06/11 07:37:02;;;;;;;7.43;6.87;;;27.00;51.10;;;;;;5036850;28;20472;-71
2023/06/11 07:39:31;;;;;;;6.13;5.63;;;27.00;51.10;;;;;;5017771;28;20444;-71
2023/06/11 07:41:59;;;;;;;6.37;5.87;;;27.00;51.10;;;;;;5017625;28;20868;-72
2023/06/11 07:44:29;;;;;;;5.90;5.47;;;27.00;51.20;;;;;;5018300;28;20446;-71
2023/06/11 07:46:58;;;;;;;6.50;6.10;;;27.00;51.20;;;;;;5026921;28;20592;-71
2023/06/11 07:49:27;;;;;;;5.97;5.57;;;27.00;51.30;;;;;;5013794;28;20524;-71
2023/06/11 07:51:56;;;;;;;6.20;5.80;;;27.00;51.30;;;;;;5019655;28;20583;-71
2023/06/11 07:54:24;;;;;;;7.30;6.30;;;27.00;51.40;;;;;;5032677;28;20444;-70
2023/06/11 07:56:53;;;;;;;7.23;6.73;;;27.00;51.30;;;;;;5019963;28;20469;-71
2023/06/11 07:59:21;;;;;;;6.03;5.63;;;27.00;51.40;;;;;;5025208;28;20443;-72
2023/06/11 08:01:51;;;;;;;7.10;6.50;;;27.00;51.50;;;;;;5022363;28;20530;-71
2023/06/11 08:04:20;;;;;;;6.83;6.33;;;27.00;51.40;;;;;;5025728;28;20519;-72
2023/06/11 08:06:48;;;;;;;6.70;6.20;;;27.00;51.40;;;;;;5017056;28;20480;-71
2023/06/11 08:09:17;;;;;;;5.47;5.07;;;27.00;51.40;;;;;;5032133;28;20448;-71
2023/06/11 08:11:45;;;;;;;6.17;5.77;;;27.00;51.50;;;;;;5025785;28;20452;-70
2023/06/11 08:14:13;;;;;;;6.40;5.90;;;27.00;51.60;;;;;;5022581;28;20495;-71
2023/06/11 08:16:42;;;;;;;7.23;6.63;;;27.00;51.60;;;;;;5024424;28;20495;-70
2023/06/11 08:19:12;;;;;;;6.90;6.40;;;27.00;51.60;;;;;;5016322;28;20444;-71
2023/06/11 08:21:41;;;;;;;5.90;5.50;;;27.00;51.60;;;;;;5016639;28;20480;-69
2023/06/11 08:24:09;;;;;;;6.53;6.00;;;27.00;51.60;;;;;;5021151;28;21197;-69
2023/06/11 08:26:38;;;;;;;6.10;5.70;;;27.00;51.70;;;;;;5018490;28;20550;-71
2023/06/11 08:29:06;;;;;;;6.77;6.30;;;27.00;51.70;;;;;;5011658;28;20533;-71
2023/06/11 08:31:34;;;;;;;6.20;5.80;;;27.00;52.90;;;;;;5021851;28;20483;-71
2023/06/11 08:34:03;;;;;;;6.57;6.17;;;27.00;51.80;;;;;;5043492;28;20446;-71
2023/06/11 08:36:33;;;;;;;6.50;6.10;;;27.00;51.80;;;;;;5027858;28;20987;-71
2023/06/11 08:39:02;;;;;;;5.93;5.53;;;27.00;51.80;;;;;;5022945;28;20452;-71
2023/06/11 08:41:31;;;;;;;6.33;5.87;;;27.00;51.80;;;;;;5032989;28;20455;-71
2023/06/11 08:44:00;;;;;;;6.53;6.13;;;27.00;51.80;;;;;;5044481;28;20441;-71
2023/06/11 08:46:35;;;;;;;5.87;5.47;;;27.00;51.70;;;;;;5018220;28;21013;-71
2023/06/11 08:49:07;;;;;;;5.70;5.30;;;27.00;51.80;;;;;;5027926;28;20951;-71
2023/06/11 08:51:38;;;;;;;6.83;6.30;;;27.00;51.90;;;;;;5028427;28;20464;-72
2023/06/11 08:54:07;;;;;;;6.67;6.17;;;27.00;51.90;;;;;;5021853;28;20439;-72
2023/06/11 08:56:37;;;;;;;6.80;6.13;;;27.00;52.00;;;;;;5026142;28;20476;-71
2023/06/11 08:59:07;;;;;;;6.20;5.80;;;27.00;51.80;;;;;;5021964;28;20498;-71
2023/06/11 09:01:35;;;;;;;6.77;6.30;;;27.00;51.80;;;;;;5037485;28;20484;-72
2023/06/11 09:04:05;;;;;;;5.93;5.53;;;27.00;51.80;;;;;;5016622;28;20476;-70
2023/06/11 09:06:36;;;;;;;6.80;6.30;;;27.00;51.80;;;;;;5019624;28;20480;-71
2023/06/11 09:09:07;;;;;;;6.20;5.77;;;27.00;51.80;;;;;;5027783;28;20489;-71
2023/06/11 09:11:37;;;;;;;6.30;5.83;;;27.00;51.80;;;;;;5026082;28;20570;-71
2023/06/11 09:14:07;;;;;;;6.63;6.13;;;27.00;51.80;;;;;;5022953;28;20476;-72
2023/06/11 09:16:40;;;;;;;6.43;5.90;;;27.00;51.80;;;;;;5025845;28;20855;-71
2023/06/11 09:19:11;;;;;;;6.63;6.23;;;27.00;51.80;;;;;;5021266;28;20451;-71
2023/06/11 09:21:49;;;;;;;6.20;5.70;;;27.00;51.90;;;;;;5035195;28;21060;-71
2023/06/11 09:24:19;;;;;;;6.23;5.83;;;27.00;51.90;;;;;;5018832;28;20463;-71
2023/06/11 09:26:52;;;;;;;5.33;4.93;;;27.00;51.90;;;;;;5039234;28;20836;-71
2023/06/11 09:29:21;;;;;;;5.60;5.20;;;27.00;52.00;;;;;;5030927;28;20543;-71
2023/06/11 09:31:50;;;;;;;5.33;4.93;;;27.00;51.80;;;;;;5030401;28;20476;-71
2023/06/11 09:34:22;;;;;;;6.40;5.90;;;27.00;51.60;;;;;;5027211;28;20964;-70
2023/06/11 09:36:52;;;;;;;6.10;5.60;;;27.00;51.60;;;;;;5027261;28;20464;-71
2023/06/11 09:39:21;;;;;;;6.37;5.87;;;27.00;51.70;;;;;;5035123;28;20444;-70
2023/06/11 09:41:50;;;;;;;5.70;5.30;;;27.00;51.60;;;;;;5014671;28;20527;-71
2023/06/11 09:44:20;;;;;;;6.07;5.67;;;27.00;51.70;;;;;;5041334;28;20494;-72
2023/06/11 09:46:49;;;;;;;6.27;5.87;;;27.00;51.60;;;;;;5019569;28;21134;-71
2023/06/11 09:49:18;;;;;;;6.10;5.60;;;27.00;51.70;;;;;;5036144;28;20448;-71
2023/06/11 09:51:48;;;;;;;6.53;6.03;;;27.00;51.60;;;;;;5030414;28;20468;-71
2023/06/11 09:54:19;;;;;;;6.50;6.00;;;27.00;51.60;;;;;;5040946;28;20661;-69
2023/06/11 09:56:48;;;;;;;6.37;5.97;;;27.00;51.70;;;;;;5037465;28;20484;-71
2023/06/11 09:59:18;;;;;;;6.17;5.67;;;27.00;51.70;;;;;;5018513;28;20474;-71
2023/06/11 10:01:48;;;;;;;6.47;5.97;;;27.00;51.80;;;;;;5026422;28;20593;-71
2023/06/11 10:04:17;;;;;;;7.10;6.40;;;27.10;51.50;;;;;;5041830;28;20468;-71
2023/06/11 10:06:50;;;;;;;8.60;6.63;;;27.60;46.00;;;;;;5024575;28;20915;-71
2023/06/11 10:09:21;;;;;;;7.97;7.17;;;27.70;45.90;;;;;;5040877;28;20699;-70
2023/06/11 10:11:50;;;;;;;7.53;6.93;;;27.50;46.50;;;;;;5038840;28;20888;-70
2023/06/11 10:14:23;;;;;;;7.67;7.07;;;27.40;47.10;;;;;;5012322;28;20617;-71
2023/06/11 10:16:54;;;;;;;7.30;6.70;;;27.30;47.70;;;;;;5021226;28;20578;-72
2023/06/11 10:19:26;;;;;;;8.17;7.47;;;27.20;48.10;;;;;;5022181;28;20464;-71
2023/06/11 10:22:02;;;;;;;8.30;7.60;;;27.10;48.40;;;;;;5024945;28;20473;-71
2023/06/11 10:24:32;;;;;;;7.17;6.67;;;27.10;48.90;;;;;;5023189;28;20896;-71
2023/06/11 10:27:07;;;;;;;7.87;7.27;;;27.10;49.30;;;;;;5020545;28;21031;-71
2023/06/11 10:29:40;;;;;;;7.33;6.83;;;27.10;49.40;;;;;;5041599;28;20535;-71
2023/06/11 10:32:16;;;;;;;6.90;6.40;;;27.00;49.40;;;;;;5023486;28;20471;-71
2023/06/11 10:34:46;;;;;;;7.23;6.73;;;27.00;49.70;;;;;;5021041;28;20438;-71
2023/06/11 10:37:15;;;;;;;7.20;6.50;;;27.00;49.70;;;;;;5024906;28;20488;-71
2023/06/11 10:39:55;;;;;;;7.73;7.23;;;27.00;49.90;;;;;;5039931;28;20447;-71
2023/06/11 10:42:25;;;;;;;7.87;7.27;;;27.10;49.70;;;;;;5025329;28;20476;-71
2023/06/11 10:44:58;;;;;;;7.97;7.37;;;27.10;49.70;;;;;;5032067;28;20883;-70
2023/06/11 10:47:30;;;;;;;7.10;6.57;;;27.00;49.70;;;;;;5016073;28;20484;-69
2023/06/11 10:50:07;;;;;;;8.20;7.63;;;27.00;49.80;;;;;;5009097;28;20547;-71
2023/06/11 10:52:48;;;;;;;7.77;7.20;;;27.00;49.70;;;;;;5038218;28;20490;-71
2023/06/11 10:55:20;;;;;;;7.57;7.00;;;27.00;49.90;;;;;;5024856;28;20458;-72
2023/06/11 10:57:52;;;;;;;7.80;7.10;;;27.10;50.00;;;;;;5027044;28;20957;-71
2023/06/11 11:00:22;;;;;;;7.40;6.80;;;27.10;49.90;;;;;;5034214;28;20459;-70
2023/06/11 11:02:51;;;;;;;8.00;7.40;;;27.10;50.00;;;;;;5018852;28;20980;-71
2023/06/11 11:05:20;;;;;;;7.10;6.50;;;27.10;50.00;;;;;;5013821;28;20524;-71
2023/06/11 11:07:49;;;;;;;7.10;6.60;;;27.10;50.20;;;;;;5029644;28;21022;-72
2023/06/11 11:10:24;;;;;;;7.00;6.47;;;27.10;50.10;;;;;;5023153;28;20836;-72
2023/06/11 11:12:54;;;;;;;7.10;6.60;;;27.10;50.10;;;;;;5037591;28;20439;-71
2023/06/11 11:15:23;;;;;;;7.20;6.60;;;27.10;50.20;;;;;;5017719;28;20479;-71
2023/06/11 11:17:52;;;;;;;8.60;7.00;;;27.10;50.10;;;;;;5020855;28;20540;-70
2023/06/11 11:20:21;;;;;;;7.20;6.70;;;27.10;50.00;;;;;;5028122;28;20443;-71
2023/06/11 11:22:51;;;;;;;6.97;6.47;;;27.10;49.90;;;;;;5024042;28;20455;-71
2023/06/11 11:25:23;;;;;;;7.53;6.93;;;27.10;50.00;;;;;;5015501;28;20499;-70
2023/06/11 11:27:51;;;;;;;7.67;7.17;;;27.10;49.80;;;;;;5034628;28;20444;-71
2023/06/11 11:30:21;;;;;;;6.60;6.10;;;27.10;49.90;;;;;;5022943;28;20431;-71
2023/06/11 11:32:50;;;;;;;7.40;6.70;;;27.10;50.00;;;;;;5033185;28;20938;-71
2023/06/11 11:35:25;;;;;;;8.00;7.40;;;27.10;50.10;;;;;;5022358;28;20952;-71
2023/06/11 11:37:55;;;;;;;7.57;6.93;;;27.10;49.80;;;;;;5038312;28;20480;-67
2023/06/11 11:40:25;;;;;;;6.87;6.33;;;27.10;49.80;;;;;;5017903;28;20824;-66
2023/06/11 11:42:55;;;;;;;6.70;6.10;;;27.20;50.00;;;;;;5033713;28;20879;-68
2023/06/11 11:45:32;;;;;;;7.43;6.80;;;27.10;49.90;;;;;;5030682;28;20530;-67
2023/06/11 11:48:02;;;;;;;6.43;6.03;;;27.10;49.20;;;;;;5025124;28;20761;-68
2023/06/11 11:50:33;;;;;;;6.50;6.00;;;27.20;49.30;;;;;;5032938;28;20484;-68
2023/06/11 11:53:04;;;;;;;7.53;6.93;;;27.10;49.40;;;;;;5020265;28;20466;-68
2023/06/11 11:55:36;;;;;;;7.40;6.70;;;27.10;46.00;;;;;;5028677;28;20527;-67
2023/06/11 11:58:24;;;;;;;7.20;6.50;;;27.20;44.30;;;;;;5033557;28;20481;-68
2023/06/11 12:00:54;;;;;;;10.03;8.03;;;27.30;44.70;;;;;;5032209;28;20449;-68
2023/06/11 12:03:24;;;;;;;8.30;7.50;;;27.30;44.70;;;;;;5020464;28;20448;-68
2023/06/11 12:05:58;;;;;;;7.90;7.30;;;27.30;44.90;;;;;;5020767;28;20872;-68
2023/06/11 12:08:28;;;;;;;7.47;6.97;;;27.30;45.20;;;;;;5017359;28;20845;-68
2023/06/11 12:10:59;;;;;;;8.10;7.17;;;27.20;45.40;;;;;;5021713;28;20443;-68
2023/06/11 12:13:28;;;;;;;7.67;6.90;;;27.30;46.10;;;;;;5023397;28;20424;-67
2023/06/11 12:15:57;;;;;;;7.33;6.83;;;27.20;45.80;;;;;;5012388;28;20476;-68
2023/06/11 12:18:30;;;;;;;8.27;7.67;;;27.20;46.10;;;;;;5024894;28;20493;-66
2023/06/11 12:20:59;;;;;;;8.33;7.73;;;27.30;45.40;;;;;;5036018;28;20467;-68
2023/06/11 12:23:27;;;;;;;8.30;7.70;;;27.30;45.60;;;;;;5027946;28;20445;-67
2023/06/11 12:25:56;;;;;;;7.43;6.93;;;27.30;46.00;;;;;;5020920;28;20479;-67
2023/06/11 12:28:26;;;;;;;9.70;6.80;;;27.30;46.30;;;;;;5037805;28;20428;-68
2023/06/11 12:30:55;;;;;;;8.43;7.83;;;27.30;46.60;;;;;;5033115;28;20440;-68
2023/06/11 12:33:24;;;;;;;7.23;6.67;;;27.30;46.90;;;;;;5021501;28;21015;-66
2023/06/11 12:35:53;;;;;;;7.93;7.23;;;27.30;47.00;;;;;;5017649;28;20524;-70
2023/06/11 12:38:22;;;;;;;7.53;7.00;;;27.30;47.20;;;;;;5018156;28;20487;-71
2023/06/11 12:40:50;;;;;;;6.77;6.27;;;27.30;47.50;;;;;;5024220;28;20529;-71
2023/06/11 12:43:19;;;;;;;7.73;7.13;;;27.30;47.50;;;;;;5026282;28;21132;-71
2023/06/11 12:45:50;;;;;;;7.63;7.03;;;27.30;47.40;;;;;;5014492;28;20472;-71
2023/06/11 12:48:19;;;;;;;7.07;6.57;;;27.30;47.30;;;;;;5025125;28;20567;-71
2023/06/11 12:50:48;;;;;;;7.60;7.00;;;27.30;47.20;;;;;;5021190;28;20457;-71
2023/06/11 12:53:16;;;;;;;7.57;6.97;;;27.30;47.00;;;;;;5031658;28;20512;-71
2023/06/11 12:55:45;;;;;;;7.13;6.63;;;27.30;46.90;;;;;;5043089;28;20475;-72
2023/06/11 12:58:14;;;;;;;7.33;6.73;;;27.30;47.10;;;;;;5011723;28;20952;-71
2023/06/11 13:00:43;;;;;;;7.27;6.67;;;27.30;46.80;;;;;;5032073;28;20540;-71
2023/06/11 13:03:13;;;;;;;8.33;7.53;;;27.30;47.10;;;;;;5028795;28;20476;-72